sensor_id;sensor_type;location;lat;lon;timestamp;P1;durP1;ratioP1;P2;durP2;ratioP2
15624;SDS011;7912;51.376;6.126;2022-09-09T00:00:15;2.37;;;1.80;;
15624;SDS011;7912;51.376;6.126;2022-09-09T00:03:14;2.30;;;2.10;;
15624;SDS011;7912;51.376;6.126;2022-09-09T00:06:23;3.83;;;2.37;;
15624;SDS011;7912;51.376;6.126;2022-09-09T00:09:49;4.13;;;2.33;;
15624;SDS011;7912;51.376;6.126;2022-09-09T00:16:15;3.33;;;2.27;;
15624;SDS011;7912;51.376;6.126;2022-09-09T00:22:36;2.40;;;2.07;;
15624;SDS011;7912;51.376;6.126;2022-09-09T00:29:10;2.50;;;2.30;;
15624;SDS011;7912;51.376;6.126;2022-09-09T00:32:17;2.67;;;2.47;;
15624;SDS011;7912;51.376;6.126;2022-09-09T00:34:57;3.00;;;2.67;;
15624;SDS011;7912;51.376;6.126;2022-09-09T00:38:09;2.70;;;2.43;;
15624;SDS011;7912;51.376;6.126;2022-09-09T00:44:11;3.27;;;2.43;;
15624;SDS011;7912;51.376;6.126;2022-09-09T00:56:44;2.50;;;2.30;;
15624;SDS011;7912;51.376;6.126;2022-09-09T01:06:31;3.60;;;2.50;;
15624;SDS011;7912;51.376;6.126;2022-09-09T01:12:35;2.27;;;2.07;;
15624;SDS011;7912;51.376;6.126;2022-09-09T01:15:22;3.63;;;2.10;;
15624;SDS011;7912;51.376;6.126;2022-09-09T01:18:05;2.90;;;2.10;;
15624;SDS011;7912;51.376;6.126;2022-09-09T01:24:30;3.53;;;2.10;;
15624;SDS011;7912;51.376;6.126;2022-09-09T01:27:20;2.30;;;1.80;;
15624;SDS011;7912;51.376;6.126;2022-09-09T01:29:55;2.83;;;1.90;;
15624;SDS011;7912;51.376;6.126;2022-09-09T01:32:46;2.10;;;1.83;;
15624;SDS011;7912;51.376;6.126;2022-09-09T01:38:43;2.70;;;2.00;;
15624;SDS011;7912;51.376;6.126;2022-09-09T01:41:13;2.43;;;1.73;;
15624;SDS011;7912;51.376;6.126;2022-09-09T01:43:43;2.17;;;1.97;;
15624;SDS011;7912;51.376;6.126;2022-09-09T01:46:11;2.93;;;2.13;;
15624;SDS011;7912;51.376;6.126;2022-09-09T01:48:40;3.10;;;1.90;;
15624;SDS011;7912;51.376;6.126;2022-09-09T01:51:09;5.47;;;2.40;;
15624;SDS011;7912;51.376;6.126;2022-09-09T01:53:37;2.63;;;2.20;;
15624;SDS011;7912;51.376;6.126;2022-09-09T01:56:19;3.10;;;2.10;;
15624;SDS011;7912;51.376;6.126;2022-09-09T02:05:30;2.27;;;1.80;;
15624;SDS011;7912;51.376;6.126;2022-09-09T02:08:26;2.90;;;1.90;;
15624;SDS011;7912;51.376;6.126;2022-09-09T02:11:17;1.97;;;1.67;;
15624;SDS011;7912;51.376;6.126;2022-09-09T02:13:49;3.13;;;1.80;;
15624;SDS011;7912;51.376;6.126;2022-09-09T02:16:37;2.73;;;1.83;;
15624;SDS011;7912;51.376;6.126;2022-09-09T02:19:15;2.10;;;1.50;;
15624;SDS011;7912;51.376;6.126;2022-09-09T02:21:52;2.83;;;1.70;;
15624;SDS011;7912;51.376;6.126;2022-09-09T02:24:22;3.10;;;1.77;;
15624;SDS011;7912;51.376;6.126;2022-09-09T02:26:51;2.47;;;1.43;;
15624;SDS011;7912;51.376;6.126;2022-09-09T02:29:25;2.40;;;1.80;;
15624;SDS011;7912;51.376;6.126;2022-09-09T02:32:01;2.67;;;1.77;;
15624;SDS011;7912;51.376;6.126;2022-09-09T02:34:35;3.67;;;1.73;;
15624;SDS011;7912;51.376;6.126;2022-09-09T02:37:12;2.70;;;1.60;;
15624;SDS011;7912;51.376;6.126;2022-09-09T02:39:46;2.43;;;1.60;;
15624;SDS011;7912;51.376;6.126;2022-09-09T02:42:14;2.80;;;1.40;;
15624;SDS011;7912;51.376;6.126;2022-09-09T02:44:45;2.10;;;1.53;;
15624;SDS011;7912;51.376;6.126;2022-09-09T02:47:27;2.57;;;1.60;;
15624;SDS011;7912;51.376;6.126;2022-09-09T02:54:10;4.63;;;1.57;;
15624;SDS011;7912;51.376;6.126;2022-09-09T02:57:06;1.60;;;1.50;;
15624;SDS011;7912;51.376;6.126;2022-09-09T02:59:56;3.13;;;1.80;;
15624;SDS011;7912;51.376;6.126;2022-09-09T03:02:28;3.80;;;1.83;;
15624;SDS011;7912;51.376;6.126;2022-09-09T03:08:23;5.10;;;2.07;;
15624;SDS011;7912;51.376;6.126;2022-09-09T03:10:50;2.83;;;2.23;;
15624;SDS011;7912;51.376;6.126;2022-09-09T03:13:23;3.73;;;1.97;;
15624;SDS011;7912;51.376;6.126;2022-09-09T03:15:51;2.93;;;2.40;;
15624;SDS011;7912;51.376;6.126;2022-09-09T03:18:18;5.50;;;1.93;;
15624;SDS011;7912;51.376;6.126;2022-09-09T03:20:48;3.27;;;1.97;;
15624;SDS011;7912;51.376;6.126;2022-09-09T03:23:16;2.83;;;1.93;;
15624;SDS011;7912;51.376;6.126;2022-09-09T03:25:50;2.47;;;1.90;;
15624;SDS011;7912;51.376;6.126;2022-09-09T03:28:18;2.67;;;2.00;;
15624;SDS011;7912;51.376;6.126;2022-09-09T03:30:47;3.10;;;1.77;;
15624;SDS011;7912;51.376;6.126;2022-09-09T03:33:14;2.80;;;2.00;;
15624;SDS011;7912;51.376;6.126;2022-09-09T03:35:46;3.07;;;1.80;;
15624;SDS011;7912;51.376;6.126;2022-09-09T03:38:22;3.63;;;1.73;;
15624;SDS011;7912;51.376;6.126;2022-09-09T03:40:51;2.87;;;1.97;;
15624;SDS011;7912;51.376;6.126;2022-09-09T03:43:24;3.93;;;1.70;;
15624;SDS011;7912;51.376;6.126;2022-09-09T03:45:53;3.43;;;1.70;;
15624;SDS011;7912;51.376;6.126;2022-09-09T03:48:24;2.70;;;1.50;;
15624;SDS011;7912;51.376;6.126;2022-09-09T03:50:54;2.13;;;1.80;;
15624;SDS011;7912;51.376;6.126;2022-09-09T03:53:24;2.80;;;1.80;;
15624;SDS011;7912;51.376;6.126;2022-09-09T03:55:53;4.43;;;1.90;;
15624;SDS011;7912;51.376;6.126;2022-09-09T03:58:26;2.13;;;1.87;;
15624;SDS011;7912;51.376;6.126;2022-09-09T04:00:54;3.90;;;1.90;;
15624;SDS011;7912;51.376;6.126;2022-09-09T04:03:25;4.23;;;1.77;;
15624;SDS011;7912;51.376;6.126;2022-09-09T04:05:54;4.10;;;1.90;;
15624;SDS011;7912;51.376;6.126;2022-09-09T04:08:25;4.50;;;1.90;;
15624;SDS011;7912;51.376;6.126;2022-09-09T04:10:53;2.83;;;1.70;;
15624;SDS011;7912;51.376;6.126;2022-09-09T04:13:24;3.00;;;2.00;;
15624;SDS011;7912;51.376;6.126;2022-09-09T04:15:56;3.60;;;1.80;;
15624;SDS011;7912;51.376;6.126;2022-09-09T04:18:28;3.90;;;1.90;;
15624;SDS011;7912;51.376;6.126;2022-09-09T04:20:56;3.77;;;1.77;;
15624;SDS011;7912;51.376;6.126;2022-09-09T04:23:25;3.43;;;2.07;;
15624;SDS011;7912;51.376;6.126;2022-09-09T04:25:57;3.77;;;2.10;;
15624;SDS011;7912;51.376;6.126;2022-09-09T04:28:26;6.33;;;2.40;;
15624;SDS011;7912;51.376;6.126;2022-09-09T04:31:03;3.43;;;1.80;;
15624;SDS011;7912;51.376;6.126;2022-09-09T04:33:44;2.43;;;1.73;;
15624;SDS011;7912;51.376;6.126;2022-09-09T04:36:12;3.33;;;2.00;;
15624;SDS011;7912;51.376;6.126;2022-09-09T04:38:40;2.83;;;2.03;;
15624;SDS011;7912;51.376;6.126;2022-09-09T04:41:08;3.93;;;2.10;;
15624;SDS011;7912;51.376;6.126;2022-09-09T04:43:39;2.43;;;1.90;;
15624;SDS011;7912;51.376;6.126;2022-09-09T04:46:09;2.43;;;1.80;;
15624;SDS011;7912;51.376;6.126;2022-09-09T04:48:37;2.90;;;2.10;;
15624;SDS011;7912;51.376;6.126;2022-09-09T04:51:08;4.37;;;2.23;;
15624;SDS011;7912;51.376;6.126;2022-09-09T04:53:39;2.50;;;2.17;;
15624;SDS011;7912;51.376;6.126;2022-09-09T04:56:11;4.60;;;2.30;;
15624;SDS011;7912;51.376;6.126;2022-09-09T04:58:41;3.57;;;2.10;;
15624;SDS011;7912;51.376;6.126;2022-09-09T05:01:13;4.77;;;2.20;;
15624;SDS011;7912;51.376;6.126;2022-09-09T05:03:45;4.27;;;2.20;;
15624;SDS011;7912;51.376;6.126;2022-09-09T05:06:14;2.90;;;2.17;;
15624;SDS011;7912;51.376;6.126;2022-09-09T05:08:44;3.97;;;2.43;;
15624;SDS011;7912;51.376;6.126;2022-09-09T05:11:19;5.23;;;2.70;;
15624;SDS011;7912;51.376;6.126;2022-09-09T05:13:52;4.60;;;2.23;;
15624;SDS011;7912;51.376;6.126;2022-09-09T05:16:36;3.90;;;2.33;;
15624;SDS011;7912;51.376;6.126;2022-09-09T05:19:13;3.33;;;2.13;;
15624;SDS011;7912;51.376;6.126;2022-09-09T05:21:40;5.07;;;2.30;;
15624;SDS011;7912;51.376;6.126;2022-09-09T05:24:08;4.67;;;2.17;;
15624;SDS011;7912;51.376;6.126;2022-09-09T05:26:35;4.97;;;2.40;;
15624;SDS011;7912;51.376;6.126;2022-09-09T05:29:08;4.40;;;2.23;;
15624;SDS011;7912;51.376;6.126;2022-09-09T05:31:35;3.43;;;2.00;;
15624;SDS011;7912;51.376;6.126;2022-09-09T05:34:12;4.17;;;2.37;;
15624;SDS011;7912;51.376;6.126;2022-09-09T05:36:44;3.50;;;1.83;;
15624;SDS011;7912;51.376;6.126;2022-09-09T05:39:18;4.90;;;2.37;;
15624;SDS011;7912;51.376;6.126;2022-09-09T05:41:46;3.87;;;2.13;;
15624;SDS011;7912;51.376;6.126;2022-09-09T05:44:14;4.80;;;2.20;;
15624;SDS011;7912;51.376;6.126;2022-09-09T05:46:41;3.43;;;1.90;;
15624;SDS011;7912;51.376;6.126;2022-09-09T05:49:13;4.70;;;1.80;;
15624;SDS011;7912;51.376;6.126;2022-09-09T05:54:31;5.83;;;2.00;;
15624;SDS011;7912;51.376;6.126;2022-09-09T05:57:01;4.77;;;2.10;;
15624;SDS011;7912;51.376;6.126;2022-09-09T05:59:29;3.70;;;1.80;;
15624;SDS011;7912;51.376;6.126;2022-09-09T06:01:58;6.07;;;2.50;;
15624;SDS011;7912;51.376;6.126;2022-09-09T06:04:26;3.03;;;1.60;;
15624;SDS011;7912;51.376;6.126;2022-09-09T06:06:56;4.60;;;2.23;;
15624;SDS011;7912;51.376;6.126;2022-09-09T06:09:25;5.47;;;2.30;;
15624;SDS011;7912;51.376;6.126;2022-09-09T06:11:53;4.30;;;2.27;;
15624;SDS011;7912;51.376;6.126;2022-09-09T06:14:21;4.67;;;1.90;;
15624;SDS011;7912;51.376;6.126;2022-09-09T06:16:48;6.87;;;2.60;;
15624;SDS011;7912;51.376;6.126;2022-09-09T06:19:16;5.93;;;2.70;;
15624;SDS011;7912;51.376;6.126;2022-09-09T06:21:43;2.63;;;2.03;;
15624;SDS011;7912;51.376;6.126;2022-09-09T06:24:11;7.27;;;2.60;;
15624;SDS011;7912;51.376;6.126;2022-09-09T06:26:43;4.40;;;2.40;;
15624;SDS011;7912;51.376;6.126;2022-09-09T06:29:11;5.03;;;2.40;;
15624;SDS011;7912;51.376;6.126;2022-09-09T06:31:39;4.77;;;2.10;;
15624;SDS011;7912;51.376;6.126;2022-09-09T06:34:09;4.20;;;2.20;;
15624;SDS011;7912;51.376;6.126;2022-09-09T06:36:40;6.33;;;2.07;;
15624;SDS011;7912;51.376;6.126;2022-09-09T06:39:10;5.77;;;2.10;;
15624;SDS011;7912;51.376;6.126;2022-09-09T06:41:41;4.10;;;2.17;;
15624;SDS011;7912;51.376;6.126;2022-09-09T06:44:09;3.90;;;2.07;;
15624;SDS011;7912;51.376;6.126;2022-09-09T06:46:38;4.87;;;2.17;;
15624;SDS011;7912;51.376;6.126;2022-09-09T06:49:07;4.20;;;2.20;;
15624;SDS011;7912;51.376;6.126;2022-09-09T06:51:36;4.10;;;2.13;;
15624;SDS011;7912;51.376;6.126;2022-09-09T06:54:11;3.33;;;1.93;;
15624;SDS011;7912;51.376;6.126;2022-09-09T06:56:39;6.57;;;2.40;;
15624;SDS011;7912;51.376;6.126;2022-09-09T06:59:09;4.10;;;2.17;;
15624;SDS011;7912;51.376;6.126;2022-09-09T07:01:39;5.23;;;2.20;;
15624;SDS011;7912;51.376;6.126;2022-09-09T07:04:08;5.53;;;2.57;;
15624;SDS011;7912;51.376;6.126;2022-09-09T07:06:38;4.40;;;2.00;;
15624;SDS011;7912;51.376;6.126;2022-09-09T07:09:12;2.77;;;1.83;;
15624;SDS011;7912;51.376;6.126;2022-09-09T07:11:43;4.60;;;2.03;;
15624;SDS011;7912;51.376;6.126;2022-09-09T07:14:13;7.63;;;2.00;;
15624;SDS011;7912;51.376;6.126;2022-09-09T07:16:42;8.57;;;2.37;;
15624;SDS011;7912;51.376;6.126;2022-09-09T07:19:11;4.87;;;2.10;;
15624;SDS011;7912;51.376;6.126;2022-09-09T07:21:40;6.93;;;2.70;;
15624;SDS011;7912;51.376;6.126;2022-09-09T07:24:09;3.80;;;2.10;;
15624;SDS011;7912;51.376;6.126;2022-09-09T07:26:39;4.60;;;2.27;;
15624;SDS011;7912;51.376;6.126;2022-09-09T07:29:07;4.40;;;2.00;;
15624;SDS011;7912;51.376;6.126;2022-09-09T07:31:46;4.83;;;1.90;;
15624;SDS011;7912;51.376;6.126;2022-09-09T07:34:14;4.47;;;2.07;;
15624;SDS011;7912;51.376;6.126;2022-09-09T07:36:42;5.60;;;2.10;;
15624;SDS011;7912;51.376;6.126;2022-09-09T07:39:11;4.77;;;2.23;;
15624;SDS011;7912;51.376;6.126;2022-09-09T07:41:41;4.63;;;2.00;;
15624;SDS011;7912;51.376;6.126;2022-09-09T07:44:16;4.77;;;2.20;;
15624;SDS011;7912;51.376;6.126;2022-09-09T07:46:47;4.10;;;2.10;;
15624;SDS011;7912;51.376;6.126;2022-09-09T07:49:18;3.77;;;1.83;;
15624;SDS011;7912;51.376;6.126;2022-09-09T07:51:54;3.60;;;1.80;;
15624;SDS011;7912;51.376;6.126;2022-09-09T07:54:22;4.50;;;1.93;;
15624;SDS011;7912;51.376;6.126;2022-09-09T07:56:51;5.13;;;2.20;;
15624;SDS011;7912;51.376;6.126;2022-09-09T07:59:20;4.60;;;2.13;;
15624;SDS011;7912;51.376;6.126;2022-09-09T08:01:49;4.30;;;1.93;;
15624;SDS011;7912;51.376;6.126;2022-09-09T08:04:21;4.47;;;1.90;;
15624;SDS011;7912;51.376;6.126;2022-09-09T08:06:58;4.57;;;2.13;;
15624;SDS011;7912;51.376;6.126;2022-09-09T08:09:29;3.93;;;1.90;;
15624;SDS011;7912;51.376;6.126;2022-09-09T08:12:00;3.87;;;2.00;;
15624;SDS011;7912;51.376;6.126;2022-09-09T08:14:38;5.27;;;1.77;;
15624;SDS011;7912;51.376;6.126;2022-09-09T08:20:22;3.77;;;1.70;;
15624;SDS011;7912;51.376;6.126;2022-09-09T08:22:50;5.50;;;1.80;;
15624;SDS011;7912;51.376;6.126;2022-09-09T08:25:17;4.30;;;1.80;;
15624;SDS011;7912;51.376;6.126;2022-09-09T08:27:44;3.50;;;1.70;;
15624;SDS011;7912;51.376;6.126;2022-09-09T08:32:45;4.77;;;1.80;;
15624;SDS011;7912;51.376;6.126;2022-09-09T08:35:17;4.77;;;1.60;;
15624;SDS011;7912;51.376;6.126;2022-09-09T08:37:47;3.97;;;2.00;;
15624;SDS011;7912;51.376;6.126;2022-09-09T08:40:19;4.43;;;1.90;;
15624;SDS011;7912;51.376;6.126;2022-09-09T08:42:55;3.90;;;1.83;;
15624;SDS011;7912;51.376;6.126;2022-09-09T08:46:16;5.60;;;1.80;;
15624;SDS011;7912;51.376;6.126;2022-09-09T08:48:44;4.50;;;1.90;;
15624;SDS011;7912;51.376;6.126;2022-09-09T08:51:48;2.87;;;1.53;;
15624;SDS011;7912;51.376;6.126;2022-09-09T08:54:17;3.63;;;1.57;;
15624;SDS011;7912;51.376;6.126;2022-09-09T08:57:11;3.23;;;1.67;;
15624;SDS011;7912;51.376;6.126;2022-09-09T08:59:55;5.40;;;1.60;;
15624;SDS011;7912;51.376;6.126;2022-09-09T09:02:46;3.70;;;1.50;;
15624;SDS011;7912;51.376;6.126;2022-09-09T09:08:27;5.57;;;1.80;;
15624;SDS011;7912;51.376;6.126;2022-09-09T09:11:13;3.77;;;2.00;;
15624;SDS011;7912;51.376;6.126;2022-09-09T09:13:45;4.73;;;1.63;;
15624;SDS011;7912;51.376;6.126;2022-09-09T09:16:27;4.10;;;1.67;;
15624;SDS011;7912;51.376;6.126;2022-09-09T09:19:32;4.57;;;1.60;;
15624;SDS011;7912;51.376;6.126;2022-09-09T09:24:51;3.30;;;1.53;;
15624;SDS011;7912;51.376;6.126;2022-09-09T09:28:07;3.20;;;1.70;;
15624;SDS011;7912;51.376;6.126;2022-09-09T09:30:50;4.97;;;1.80;;
15624;SDS011;7912;51.376;6.126;2022-09-09T09:36:09;4.30;;;1.73;;
15624;SDS011;7912;51.376;6.126;2022-09-09T09:38:37;4.40;;;1.80;;
15624;SDS011;7912;51.376;6.126;2022-09-09T09:41:31;4.20;;;1.70;;
15624;SDS011;7912;51.376;6.126;2022-09-09T09:47:16;5.00;;;1.60;;
15624;SDS011;7912;51.376;6.126;2022-09-09T09:49:57;4.77;;;1.77;;
15624;SDS011;7912;51.376;6.126;2022-09-09T09:52:28;4.20;;;1.83;;
15624;SDS011;7912;51.376;6.126;2022-09-09T09:55:02;4.77;;;1.70;;
15624;SDS011;7912;51.376;6.126;2022-09-09T09:57:38;3.50;;;1.70;;
15624;SDS011;7912;51.376;6.126;2022-09-09T10:00:16;4.57;;;1.60;;
15624;SDS011;7912;51.376;6.126;2022-09-09T10:02:47;4.90;;;1.70;;
15624;SDS011;7912;51.376;6.126;2022-09-09T10:05:19;5.93;;;1.90;;
15624;SDS011;7912;51.376;6.126;2022-09-09T10:08:11;4.50;;;1.70;;
15624;SDS011;7912;51.376;6.126;2022-09-09T10:11:06;4.67;;;1.63;;
15624;SDS011;7912;51.376;6.126;2022-09-09T10:16:57;3.57;;;1.47;;
15624;SDS011;7912;51.376;6.126;2022-09-09T10:19:42;4.70;;;1.77;;
15624;SDS011;7912;51.376;6.126;2022-09-09T10:22:49;5.23;;;1.90;;
15624;SDS011;7912;51.376;6.126;2022-09-09T10:28:44;4.87;;;1.70;;
15624;SDS011;7912;51.376;6.126;2022-09-09T10:31:35;4.83;;;1.70;;
15624;SDS011;7912;51.376;6.126;2022-09-09T10:52:22;5.00;;;1.50;;
15624;SDS011;7912;51.376;6.126;2022-09-09T10:58:56;3.17;;;1.60;;
15624;SDS011;7912;51.376;6.126;2022-09-09T11:01:43;3.47;;;1.70;;
15624;SDS011;7912;51.376;6.126;2022-09-09T11:04:25;4.70;;;1.90;;
15624;SDS011;7912;51.376;6.126;2022-09-09T11:07:10;3.20;;;1.80;;
15624;SDS011;7912;51.376;6.126;2022-09-09T11:09:52;2.37;;;1.50;;
15624;SDS011;7912;51.376;6.126;2022-09-09T11:12:26;4.93;;;1.80;;
15624;SDS011;7912;51.376;6.126;2022-09-09T11:15:02;4.47;;;1.80;;
15624;SDS011;7912;51.376;6.126;2022-09-09T11:20:25;2.77;;;1.70;;
15624;SDS011;7912;51.376;6.126;2022-09-09T11:29:45;3.20;;;1.70;;
15624;SDS011;7912;51.376;6.126;2022-09-09T11:32:39;4.50;;;1.77;;
15624;SDS011;7912;51.376;6.126;2022-09-09T11:38:56;6.27;;;1.90;;
15624;SDS011;7912;51.376;6.126;2022-09-09T11:44:42;2.67;;;1.57;;
15624;SDS011;7912;51.376;6.126;2022-09-09T11:51:39;4.00;;;2.10;;
15624;SDS011;7912;51.376;6.126;2022-09-09T11:57:17;4.93;;;2.20;;
15624;SDS011;7912;51.376;6.126;2022-09-09T11:59:57;3.73;;;2.13;;
15624;SDS011;7912;51.376;6.126;2022-09-09T12:02:26;5.70;;;2.20;;
15624;SDS011;7912;51.376;6.126;2022-09-09T12:05:05;4.07;;;2.10;;
15624;SDS011;7912;51.376;6.126;2022-09-09T12:14:34;3.33;;;2.10;;
15624;SDS011;7912;51.376;6.126;2022-09-09T12:20:51;7.23;;;2.40;;
15624;SDS011;7912;51.376;6.126;2022-09-09T12:24:00;4.90;;;2.20;;
15624;SDS011;7912;51.376;6.126;2022-09-09T12:26:47;5.10;;;2.40;;
15624;SDS011;7912;51.376;6.126;2022-09-09T12:29:40;2.50;;;1.70;;
15624;SDS011;7912;51.376;6.126;2022-09-09T12:32:26;5.00;;;2.10;;
15624;SDS011;7912;51.376;6.126;2022-09-09T12:35:22;4.20;;;1.87;;
15624;SDS011;7912;51.376;6.126;2022-09-09T12:41:19;3.17;;;2.00;;
15624;SDS011;7912;51.376;6.126;2022-09-09T12:44:03;3.47;;;1.97;;
15624;SDS011;7912;51.376;6.126;2022-09-09T12:46:38;2.43;;;2.00;;
15624;SDS011;7912;51.376;6.126;2022-09-09T12:49:23;5.80;;;2.27;;
15624;SDS011;7912;51.376;6.126;2022-09-09T12:52:11;3.87;;;1.87;;
15624;SDS011;7912;51.376;6.126;2022-09-09T12:54:51;3.10;;;1.70;;
15624;SDS011;7912;51.376;6.126;2022-09-09T12:57:21;3.17;;;1.80;;
15624;SDS011;7912;51.376;6.126;2022-09-09T13:00:03;3.87;;;1.73;;
15624;SDS011;7912;51.376;6.126;2022-09-09T13:03:00;2.70;;;1.80;;
15624;SDS011;7912;51.376;6.126;2022-09-09T13:05:44;2.57;;;1.57;;
15624;SDS011;7912;51.376;6.126;2022-09-09T13:08:13;2.97;;;1.83;;
15624;SDS011;7912;51.376;6.126;2022-09-09T13:13:34;3.10;;;1.90;;
15624;SDS011;7912;51.376;6.126;2022-09-09T13:16:06;4.07;;;2.30;;
15624;SDS011;7912;51.376;6.126;2022-09-09T13:19:09;3.00;;;2.00;;
15624;SDS011;7912;51.376;6.126;2022-09-09T13:21:48;4.33;;;1.73;;
15624;SDS011;7912;51.376;6.126;2022-09-09T13:24:30;3.20;;;1.70;;
15624;SDS011;7912;51.376;6.126;2022-09-09T13:27:04;3.30;;;1.60;;
15624;SDS011;7912;51.376;6.126;2022-09-09T13:29:51;4.43;;;1.60;;
15624;SDS011;7912;51.376;6.126;2022-09-09T13:32:24;3.40;;;1.70;;
15624;SDS011;7912;51.376;6.126;2022-09-09T13:34:55;2.17;;;1.50;;
15624;SDS011;7912;51.376;6.126;2022-09-09T13:37:33;2.10;;;1.30;;
15624;SDS011;7912;51.376;6.126;2022-09-09T13:40:05;3.03;;;1.60;;
15624;SDS011;7912;51.376;6.126;2022-09-09T13:42:43;2.73;;;1.40;;
15624;SDS011;7912;51.376;6.126;2022-09-09T13:45:18;3.07;;;1.30;;
15624;SDS011;7912;51.376;6.126;2022-09-09T13:47:49;2.47;;;1.30;;
15624;SDS011;7912;51.376;6.126;2022-09-09T13:50:26;3.57;;;1.43;;
15624;SDS011;7912;51.376;6.126;2022-09-09T13:52:59;3.10;;;1.43;;
15624;SDS011;7912;51.376;6.126;2022-09-09T13:55:27;2.57;;;1.60;;
15624;SDS011;7912;51.376;6.126;2022-09-09T13:57:57;2.57;;;1.30;;
15624;SDS011;7912;51.376;6.126;2022-09-09T14:00:30;2.67;;;1.43;;
15624;SDS011;7912;51.376;6.126;2022-09-09T14:03:00;2.93;;;1.20;;
15624;SDS011;7912;51.376;6.126;2022-09-09T14:05:31;2.47;;;1.30;;
15624;SDS011;7912;51.376;6.126;2022-09-09T14:08:15;2.73;;;1.30;;
15624;SDS011;7912;51.376;6.126;2022-09-09T14:10:56;4.20;;;3.20;;
15624;SDS011;7912;51.376;6.126;2022-09-09T14:13:23;2.50;;;1.70;;
15624;SDS011;7912;51.376;6.126;2022-09-09T14:15:56;2.43;;;1.30;;
15624;SDS011;7912;51.376;6.126;2022-09-09T14:18:26;4.03;;;1.30;;
15624;SDS011;7912;51.376;6.126;2022-09-09T14:21:02;2.20;;;1.50;;
15624;SDS011;7912;51.376;6.126;2022-09-09T14:23:34;3.27;;;1.43;;
15624;SDS011;7912;51.376;6.126;2022-09-09T14:26:02;2.87;;;1.50;;
15624;SDS011;7912;51.376;6.126;2022-09-09T14:28:32;1.83;;;1.10;;
15624;SDS011;7912;51.376;6.126;2022-09-09T14:31:20;1.73;;;1.00;;
15624;SDS011;7912;51.376;6.126;2022-09-09T14:33:48;4.33;;;1.40;;
15624;SDS011;7912;51.376;6.126;2022-09-09T14:36:15;1.83;;;1.20;;
15624;SDS011;7912;51.376;6.126;2022-09-09T14:38:45;2.17;;;1.30;;
15624;SDS011;7912;51.376;6.126;2022-09-09T14:41:14;2.10;;;1.20;;
15624;SDS011;7912;51.376;6.126;2022-09-09T14:43:49;2.40;;;1.30;;
15624;SDS011;7912;51.376;6.126;2022-09-09T14:46:17;1.77;;;1.10;;
15624;SDS011;7912;51.376;6.126;2022-09-09T14:48:55;1.57;;;1.20;;
15624;SDS011;7912;51.376;6.126;2022-09-09T14:51:23;3.03;;;1.17;;
15624;SDS011;7912;51.376;6.126;2022-09-09T14:53:54;2.13;;;1.40;;
15624;SDS011;7912;51.376;6.126;2022-09-09T14:56:33;2.33;;;1.43;;
15624;SDS011;7912;51.376;6.126;2022-09-09T14:59:04;2.23;;;1.50;;
15624;SDS011;7912;51.376;6.126;2022-09-09T15:01:31;4.30;;;1.67;;
15624;SDS011;7912;51.376;6.126;2022-09-09T15:04:03;2.03;;;1.40;;
15624;SDS011;7912;51.376;6.126;2022-09-09T15:06:34;2.90;;;1.23;;
15624;SDS011;7912;51.376;6.126;2022-09-09T15:09:03;2.90;;;1.30;;
15624;SDS011;7912;51.376;6.126;2022-09-09T15:11:34;3.00;;;1.30;;
15624;SDS011;7912;51.376;6.126;2022-09-09T15:14:04;4.03;;;1.63;;
15624;SDS011;7912;51.376;6.126;2022-09-09T15:16:38;3.37;;;1.30;;
15624;SDS011;7912;51.376;6.126;2022-09-09T15:19:06;2.80;;;1.40;;
15624;SDS011;7912;51.376;6.126;2022-09-09T15:21:35;3.07;;;1.43;;
15624;SDS011;7912;51.376;6.126;2022-09-09T15:24:05;2.20;;;1.43;;
15624;SDS011;7912;51.376;6.126;2022-09-09T15:26:34;1.70;;;1.37;;
15624;SDS011;7912;51.376;6.126;2022-09-09T15:29:05;2.70;;;1.50;;
15624;SDS011;7912;51.376;6.126;2022-09-09T15:31:34;2.07;;;1.40;;
15624;SDS011;7912;51.376;6.126;2022-09-09T15:34:04;3.17;;;1.50;;
15624;SDS011;7912;51.376;6.126;2022-09-09T15:36:37;3.87;;;1.50;;
15624;SDS011;7912;51.376;6.126;2022-09-09T15:39:10;2.93;;;1.50;;
15624;SDS011;7912;51.376;6.126;2022-09-09T15:41:39;2.10;;;1.40;;
15624;SDS011;7912;51.376;6.126;2022-09-09T15:44:10;2.43;;;1.40;;
15624;SDS011;7912;51.376;6.126;2022-09-09T15:46:39;2.30;;;1.30;;
15624;SDS011;7912;51.376;6.126;2022-09-09T15:49:20;5.23;;;1.67;;
15624;SDS011;7912;51.376;6.126;2022-09-09T15:51:59;2.87;;;1.40;;
15624;SDS011;7912;51.376;6.126;2022-09-09T15:54:33;1.97;;;1.30;;
15624;SDS011;7912;51.376;6.126;2022-09-09T15:57:06;3.83;;;1.40;;
15624;SDS011;7912;51.376;6.126;2022-09-09T15:59:38;2.43;;;1.27;;
15624;SDS011;7912;51.376;6.126;2022-09-09T16:02:11;3.03;;;1.50;;
15624;SDS011;7912;51.376;6.126;2022-09-09T16:04:39;3.87;;;1.50;;
15624;SDS011;7912;51.376;6.126;2022-09-09T16:07:06;1.83;;;1.23;;
15624;SDS011;7912;51.376;6.126;2022-09-09T16:09:34;2.90;;;1.60;;
15624;SDS011;7912;51.376;6.126;2022-09-09T16:12:03;3.60;;;1.20;;
15624;SDS011;7912;51.376;6.126;2022-09-09T16:14:33;2.07;;;1.50;;
15624;SDS011;7912;51.376;6.126;2022-09-09T16:17:06;1.57;;;1.30;;
15624;SDS011;7912;51.376;6.126;2022-09-09T16:19:33;1.83;;;1.33;;
15624;SDS011;7912;51.376;6.126;2022-09-09T16:22:04;4.07;;;1.50;;
15624;SDS011;7912;51.376;6.126;2022-09-09T16:24:33;3.33;;;1.57;;
15624;SDS011;7912;51.376;6.126;2022-09-09T16:27:00;2.10;;;1.23;;
15624;SDS011;7912;51.376;6.126;2022-09-09T16:29:27;1.83;;;1.30;;
15624;SDS011;7912;51.376;6.126;2022-09-09T16:31:57;2.23;;;1.33;;
15624;SDS011;7912;51.376;6.126;2022-09-09T16:34:32;2.40;;;1.20;;
15624;SDS011;7912;51.376;6.126;2022-09-09T16:37:00;2.57;;;1.50;;
15624;SDS011;7912;51.376;6.126;2022-09-09T16:39:32;2.60;;;1.53;;
15624;SDS011;7912;51.376;6.126;2022-09-09T16:42:00;2.67;;;1.27;;
15624;SDS011;7912;51.376;6.126;2022-09-09T16:44:31;2.80;;;1.50;;
15624;SDS011;7912;51.376;6.126;2022-09-09T16:47:01;4.27;;;1.47;;
15624;SDS011;7912;51.376;6.126;2022-09-09T16:49:29;2.13;;;1.50;;
15624;SDS011;7912;51.376;6.126;2022-09-09T16:51:59;1.67;;;1.30;;
15624;SDS011;7912;51.376;6.126;2022-09-09T16:54:29;2.47;;;1.43;;
15624;SDS011;7912;51.376;6.126;2022-09-09T16:56:56;2.57;;;1.50;;
15624;SDS011;7912;51.376;6.126;2022-09-09T16:59:27;3.13;;;1.43;;
15624;SDS011;7912;51.376;6.126;2022-09-09T17:01:55;2.17;;;1.40;;
15624;SDS011;7912;51.376;6.126;2022-09-09T17:04:25;2.03;;;1.30;;
15624;SDS011;7912;51.376;6.126;2022-09-09T17:06:54;2.47;;;1.40;;
15624;SDS011;7912;51.376;6.126;2022-09-09T17:09:24;2.20;;;1.30;;
15624;SDS011;7912;51.376;6.126;2022-09-09T17:11:58;2.77;;;1.60;;
15624;SDS011;7912;51.376;6.126;2022-09-09T17:14:27;4.03;;;3.40;;
15624;SDS011;7912;51.376;6.126;2022-09-09T17:16:57;4.07;;;2.70;;
15624;SDS011;7912;51.376;6.126;2022-09-09T17:19:48;3.57;;;2.00;;
15624;SDS011;7912;51.376;6.126;2022-09-09T17:22:16;4.00;;;1.53;;
15624;SDS011;7912;51.376;6.126;2022-09-09T17:24:44;2.20;;;1.53;;
15624;SDS011;7912;51.376;6.126;2022-09-09T17:27:12;2.03;;;1.33;;
15624;SDS011;7912;51.376;6.126;2022-09-09T17:29:42;1.50;;;1.30;;
15624;SDS011;7912;51.376;6.126;2022-09-09T17:32:11;2.67;;;1.50;;
15624;SDS011;7912;51.376;6.126;2022-09-09T17:35:08;2.20;;;1.40;;
15624;SDS011;7912;51.376;6.126;2022-09-09T17:37:44;2.67;;;1.37;;
15624;SDS011;7912;51.376;6.126;2022-09-09T17:40:15;1.87;;;1.27;;
15624;SDS011;7912;51.376;6.126;2022-09-09T17:42:43;1.60;;;1.30;;
15624;SDS011;7912;51.376;6.126;2022-09-09T17:45:16;2.03;;;1.47;;
15624;SDS011;7912;51.376;6.126;2022-09-09T17:48:04;2.83;;;1.53;;
15624;SDS011;7912;51.376;6.126;2022-09-09T17:50:43;4.60;;;2.00;;
15624;SDS011;7912;51.376;6.126;2022-09-09T17:53:10;4.27;;;1.90;;
15624;SDS011;7912;51.376;6.126;2022-09-09T17:55:40;3.10;;;1.87;;
15624;SDS011;7912;51.376;6.126;2022-09-09T17:58:09;4.30;;;1.90;;
15624;SDS011;7912;51.376;6.126;2022-09-09T18:00:36;2.27;;;1.90;;
15624;SDS011;7912;51.376;6.126;2022-09-09T18:06:12;1.57;;;1.17;;
15624;SDS011;7912;51.376;6.126;2022-09-09T18:08:50;2.07;;;1.20;;
15624;SDS011;7912;51.376;6.126;2022-09-09T18:11:24;4.00;;;1.30;;
15624;SDS011;7912;51.376;6.126;2022-09-09T18:13:58;1.33;;;1.20;;